Decoded Metar for WBKW (TAWAU in MALAYSIA) (IATA:TWU) | Meteo·Mobile Aviation Weather
aviador You're here:

WBKW Decoded Metar

TAWAU in MALAYSIA
Report Time2018-10-23 22:00:00
UTC Time2018-10-23 22:14:14
Flight Rules vfr VFR
WindVRB at 01 kt
Visibility9999 m
Phenomena:N/A
Clouds:Few 017 Hf
Broken 300 Hf
Expected CloudBase > 800 ft AGL from Temp-Dew spread
Ceiling30,000 ft
Temp25°C (ISA +10)
Dew Point23°C (89% RH)
QNH1011 hPa
Density Alt1,677 ft
Elevation66 ft
Report Wrong Elevation
Raw Report
WBKW 232200Z VRB01KT 9999 FEW017 BKN300 25/23 Q1011=

Extra information for WBKW:More info

Metar Taf Metar & Taf Last 4 Metars F.Rules Stats Wind Profile Meteogram Temp Stats Airport Information Weather charts Add Link Nearby VenuesMetar ALERT Operation Metar Decoded Social comments